Hav Skandic — OZ2147 — position and weather

sailwx.info

Track history (hours):
 
Tides and Currents Weather Stations Pressure Air Temp Water Temp Dewpoint Dewpoint Depression Visibility Wind Speed Wind Dir Waves Ship Positions

Hav Skandic

Last reported at 2017-Nov-20 00:30 UTC. Time now 2017-Nov-21 10:14 UTC.
Position N 68°11' E 014°49'.

Length 75 m; draft 5.3 m.

Type: Cargo ship. MMSI: 231837000.

Date/timePositionNaut miles runAvg speedWind from/ knotsBaromVisibWave heightAir tempDewpointWater temp
2017-Nov-20 00:30N 68°11' E 014°49'510.8
2017-Nov-20 00:00N 68°15' E 014°57'510.2
2017-Nov-19 23:30N 68°20' E 015°01'5 9.6
2017-Nov-19 23:00N 68°24' E 015°07'5 9.0
2017-Nov-19 22:30N 68°29' E 015°12'4 7.0
2017-Nov-19 22:00N 68°32' E 015°07'3 6.8
2017-Nov-19 21:30N 68°34' E 015°01'2 3.1
2017-Nov-19 20:58N 68°35' E 014°57'0 0.0
2017-Nov-19 20:28N 68°35' E 014°57'0 0.0
2017-Nov-19 19:58N 68°35' E 014°57'0 0.0
2017-Nov-19 19:28N 68°35' E 014°57'0 0.0
2017-Nov-19 18:58N 68°35' E 014°57'0 0.0
2017-Nov-19 18:28N 68°35' E 014°57'0 0.0
2017-Nov-19 17:58N 68°35' E 014°57'0 0.0
2017-Nov-19 17:28N 68°35' E 014°57'0 0.0
2017-Nov-19 16:58N 68°35' E 014°57'0 0.0
2017-Nov-19 16:28N 68°35' E 014°57'0 0.0
2017-Nov-19 15:58N 68°35' E 014°57'0 0.0
2017-Nov-19 15:28N 68°35' E 014°57'0 0.0
2017-Nov-19 14:58N 68°35' E 014°57'0 0.0
2017-Nov-19 14:28N 68°35' E 014°57'0 0.0
2017-Nov-19 13:58N 68°35' E 014°57'0 0.0
2017-Nov-19 13:28N 68°35' E 014°57'0 0.0
2017-Nov-19 12:58N 68°35' E 014°57'0 0.0
2017-Nov-19 12:28N 68°35' E 014°57'0 0.0
2017-Nov-19 11:58N 68°35' E 014°57'0 0.0
2017-Nov-19 11:28N 68°35' E 014°57'0 0.0
2017-Nov-19 10:58N 68°35' E 014°57'1 1.6
2017-Nov-19 10:28N 68°34' E 014°55'0 0.0
2017-Nov-19 09:58N 68°34' E 014°55'0 0.0
2017-Nov-19 09:28N 68°34' E 014°55'0 0.0
2017-Nov-19 08:58N 68°34' E 014°55'0 0.0
2017-Nov-19 08:28N 68°34' E 014°55'0 0.0
2017-Nov-19 07:58N 68°34' E 014°55'0 0.0
2017-Nov-19 07:28N 68°34' E 014°55'0 0.0
2017-Nov-19 06:58N 68°34' E 014°55'0 0.0
2017-Nov-19 06:28N 68°34' E 014°55'0 0.0
2017-Nov-19 05:58N 68°34' E 014°55'0 0.0
2017-Nov-19 05:28N 68°34' E 014°55'0 0.0
2017-Nov-19 04:58N 68°34' E 014°55'0 0.0
2017-Nov-19 04:28N 68°34' E 014°55'0 0.0
2017-Nov-19 03:58N 68°34' E 014°55'0 0.0
2017-Nov-19 03:28N 68°34' E 014°55'0 0.0
2017-Nov-19 02:58N 68°34' E 014°55'0 0.0
2017-Nov-19 02:28N 68°34' E 014°55'0 0.0
2017-Nov-19 01:58N 68°34' E 014°55'0 0.0
2017-Nov-19 01:28N 68°34' E 014°55'0 0.0
2017-Nov-19 00:58N 68°34' E 014°55'0 0.0
2017-Nov-19 00:28N 68°34' E 014°55'0 0.0
2017-Nov-18 23:58N 68°34' E 014°55'0 0.0
2017-Nov-18 23:28N 68°34' E 014°55'0 0.0
2017-Nov-18 22:58N 68°34' E 014°55'0 0.0
2017-Nov-18 22:28N 68°34' E 014°55'0 0.0
2017-Nov-18 21:58N 68°34' E 014°55'0 0.0
2017-Nov-18 21:28N 68°34' E 014°55'0 0.0
2017-Nov-18 20:58N 68°34' E 014°55'0 0.0
2017-Nov-18 20:28N 68°34' E 014°55'0 0.0
2017-Nov-18 19:58N 68°34' E 014°55'0 0.0
2017-Nov-18 19:28N 68°34' E 014°55'0 0.0
2017-Nov-18 18:58N 68°34' E 014°55'0 0.0
2017-Nov-18 18:28N 68°34' E 014°55'0 0.0
2017-Nov-18 17:58N 68°34' E 014°55'0 0.0
2017-Nov-18 17:28N 68°34' E 014°55'0 0.0
2017-Nov-18 16:58N 68°34' E 014°55'0 0.0
2017-Nov-18 16:28N 68°34' E 014°55'0 0.0
2017-Nov-18 15:58N 68°34' E 014°55'0 0.0
2017-Nov-18 15:28N 68°34' E 014°55'0 0.0
2017-Nov-18 14:58N 68°34' E 014°55'0 0.0
2017-Nov-18 14:28N 68°34' E 014°55'0 0.0
2017-Nov-18 13:58N 68°34' E 014°55'0 0.0
2017-Nov-18 13:28N 68°34' E 014°55'0 0.0
2017-Nov-18 12:58N 68°34' E 014°55'0 0.0
2017-Nov-18 12:28N 68°34' E 014°55'0 0.0
2017-Nov-18 11:58N 68°34' E 014°55'0 0.0
2017-Nov-18 11:28N 68°34' E 014°55'0 0.0
2017-Nov-18 10:58N 68°34' E 014°55'0 0.0
2017-Nov-18 10:28N 68°34' E 014°55'0 0.0
2017-Nov-18 09:58N 68°34' E 014°55'0 0.0
2017-Nov-18 09:28N 68°34' E 014°55'0 0.0
2017-Nov-18 08:58N 68°34' E 014°55'0 0.0
2017-Nov-18 08:28N 68°34' E 014°55'0 0.0
2017-Nov-18 07:58N 68°34' E 014°55'0 0.0
2017-Nov-18 07:28N 68°34' E 014°55'0 0.0
2017-Nov-18 06:58N 68°34' E 014°55'0 0.0
2017-Nov-18 06:28N 68°34' E 014°55'0 0.0
2017-Nov-18 05:58N 68°34' E 014°55'0 0.0
2017-Nov-18 05:28N 68°34' E 014°55'0 0.0
2017-Nov-18 04:58N 68°34' E 014°55'0 0.0
2017-Nov-18 04:28N 68°34' E 014°55'0 0.0
2017-Nov-18 03:58N 68°34' E 014°55'0 0.0
2017-Nov-18 03:28N 68°34' E 014°55'0 0.0
2017-Nov-18 02:58N 68°34' E 014°55'0 0.0
2017-Nov-18 02:28N 68°34' E 014°55'0 0.0
2017-Nov-18 01:58N 68°34' E 014°55'0 0.0
2017-Nov-18 01:28N 68°34' E 014°55'0 0.0
2017-Nov-18 00:58N 68°34' E 014°55'0 0.0
2017-Nov-18 00:28N 68°34' E 014°55'0 0.0
2017-Nov-17 23:58N 68°34' E 014°55'0 0.0
2017-Nov-17 23:28N 68°34' E 014°55'0 0.0
2017-Nov-17 22:58N 68°34' E 014°55'0 0.0
2017-Nov-17 22:28N 68°34' E 014°55'0 0.0
2017-Nov-17 21:58N 68°34' E 014°55'0 0.0
2017-Nov-17 21:28N 68°34' E 014°55'0 0.0
2017-Nov-17 20:58N 68°34' E 014°55'0 0.0
2017-Nov-17 20:28N 68°34' E 014°55'0 0.0
2017-Nov-17 19:58N 68°34' E 014°55'0 0.0
2017-Nov-17 19:28N 68°34' E 014°55'0 0.0
2017-Nov-17 18:58N 68°34' E 014°55'0 0.0
2017-Nov-17 18:28N 68°34' E 014°55'0 0.0
2017-Nov-17 17:58N 68°34' E 014°55'0 0.0
2017-Nov-17 17:28N 68°34' E 014°55'0 0.0
2017-Nov-17 16:58N 68°34' E 014°55'0 0.0
2017-Nov-17 16:28N 68°34' E 014°55'0 0.0
2017-Nov-17 15:58N 68°34' E 014°55'0 0.0
2017-Nov-17 15:28N 68°34' E 014°55'0 0.0
2017-Nov-17 14:58N 68°34' E 014°55'0 0.0
2017-Nov-17 14:28N 68°34' E 014°55'0 0.0
2017-Nov-17 13:58N 68°34' E 014°55'0 0.0
2017-Nov-17 13:28N 68°34' E 014°55'0 0.0
2017-Nov-17 12:58N 68°34' E 014°55'0 0.0
2017-Nov-17 12:28N 68°34' E 014°55'0 0.0
2017-Nov-17 11:58N 68°34' E 014°55'0 0.0
2017-Nov-17 11:28N 68°34' E 014°55'0 0.0
2017-Nov-17 10:58N 68°34' E 014°55'0 0.0
2017-Nov-17 10:30N 68°34' E 014°55'0 0.0
2017-Nov-17 10:00N 68°34' E 014°55'0 0.2
2017-Nov-17 09:30N 68°34' E 014°55'3 6.5
2017-Nov-17 09:00N 68°35' E 014°46'4 7.8
2017-Nov-17 08:30N 68°36' E 014°36'5 9.4
2017-Nov-17 08:00N 68°35' E 014°23'4 8.4
2017-Nov-17 07:30N 68°36' E 014°12'4 7.5
2017-Nov-17 07:00N 68°39' E 014°11'4 8.4
2017-Nov-17 06:30N 68°43' E 014°15'4 8.4
2017-Nov-17 05:59N 68°47' E 014°21'4 8.8
2017-Nov-17 05:30N 68°50' E 014°30'5 9.2
2017-Nov-17 05:00N 68°52' E 014°41'5 9.6
2017-Nov-17 04:30N 68°52' E 014°55'4 8.3
2017-Nov-17 04:00N 68°55' E 015°03'0 0.9
2017-Nov-17 03:29N 68°55' E 015°04'0 0.0
2017-Nov-17 03:00N 68°55' E 015°04'0 0.0
2017-Nov-17 02:30N 68°55' E 015°04'0 0.0
2017-Nov-17 02:00N 68°55' E 015°04'0 0.0
2017-Nov-17 01:30N 68°55' E 015°04'0 0.0
2017-Nov-17 01:00N 68°55' E 015°04'0 0.0
2017-Nov-17 00:30N 68°55' E 015°04'0 0.0
2017-Nov-17 00:00N 68°55' E 015°04'0 0.0
2017-Nov-16 23:30N 68°55' E 015°04'0 0.0
2017-Nov-16 23:00N 68°55' E 015°04'0 0.0
2017-Nov-16 22:30N 68°55' E 015°04'0 0.0
2017-Nov-16 22:00N 68°55' E 015°04'0 0.0
2017-Nov-16 21:30N 68°55' E 015°04'0 0.0
2017-Nov-16 21:00N 68°55' E 015°04'0 0.0
2017-Nov-16 20:30N 68°55' E 015°04'0 0.0
2017-Nov-16 20:00N 68°55' E 015°04'0 0.0
2017-Nov-16 19:27N 68°55' E 015°04'0 0.0
2017-Nov-16 19:00N 68°55' E 015°04'0 0.0
2017-Nov-16 18:30N 68°55' E 015°04'0 0.0
2017-Nov-16 18:00N 68°55' E 015°04'0 0.0
2017-Nov-16 17:30N 68°55' E 015°04'0 0.0
2017-Nov-16 17:00N 68°55' E 015°04'0 0.0
2017-Nov-16 16:30N 68°55' E 015°04'0 0.0
2017-Nov-16 16:00N 68°55' E 015°04'0 0.0
2017-Nov-16 15:30N 68°55' E 015°04'0 0.0
2017-Nov-16 15:00N 68°55' E 015°04'0 0.0
2017-Nov-16 14:30N 68°55' E 015°04'0 0.0
2017-Nov-16 14:00N 68°55' E 015°04'0 0.0
2017-Nov-16 13:30N 68°55' E 015°04'0 0.0
2017-Nov-16 13:00N 68°55' E 015°04'0 0.0
2017-Nov-16 12:30N 68°55' E 015°04'0 0.0
2017-Nov-16 12:00N 68°55' E 015°04'0 0.0
2017-Nov-16 11:30N 68°55' E 015°04'0 0.0
2017-Nov-16 11:00N 68°55' E 015°04'0 0.0
2017-Nov-16 10:30N 68°55' E 015°04'0 0.0
2017-Nov-16 10:00N 68°55' E 015°04'0 0.0
2017-Nov-16 09:30N 68°55' E 015°04'0 0.0
2017-Nov-16 09:00N 68°55' E 015°04'0 0.0
2017-Nov-16 08:30N 68°55' E 015°04'0 0.0
2017-Nov-16 08:00N 68°55' E 015°04'0 0.0
2017-Nov-16 07:30N 68°55' E 015°04'0 0.5
2017-Nov-16 06:58N 68°55' E 015°03'0 0.0
2017-Nov-16 06:28N 68°55' E 015°03'0 0.0
2017-Nov-16 05:58N 68°55' E 015°03'0 0.0
2017-Nov-16 05:28N 68°55' E 015°03'0 0.0
2017-Nov-16 04:58N 68°55' E 015°03'0 0.0
2017-Nov-16 04:28N 68°55' E 015°03'0 0.0
2017-Nov-16 03:58N 68°55' E 015°03'0 0.0
2017-Nov-16 03:28N 68°55' E 015°03'0 0.0
2017-Nov-16 02:58N 68°55' E 015°03'0 0.0
2017-Nov-16 02:28N 68°55' E 015°03'0 0.0
2017-Nov-16 01:58N 68°55' E 015°03'0 0.0
2017-Nov-16 01:28N 68°55' E 015°03'0 0.0
2017-Nov-16 00:58N 68°55' E 015°03'0 0.0
2017-Nov-16 00:28N 68°55' E 015°03'0 0.0
2017-Nov-15 23:58N 68°55' E 015°03'0 0.0
2017-Nov-15 23:28N 68°55' E 015°03'0 0.0
2017-Nov-15 22:58N 68°55' E 015°03'0 0.0
2017-Nov-15 22:28N 68°55' E 015°03'0 0.0
2017-Nov-15 21:58N 68°55' E 015°03'0 0.0
2017-Nov-15 21:28N 68°55' E 015°03'0 0.0
2017-Nov-15 20:58N 68°55' E 015°03'0 0.0
2017-Nov-15 20:28N 68°55' E 015°03'0 0.0
2017-Nov-15 19:58N 68°55' E 015°03'0 0.0
2017-Nov-15 19:28N 68°55' E 015°03'0 0.0
2017-Nov-15 18:58N 68°55' E 015°03'0 0.0
2017-Nov-15 18:28N 68°55' E 015°03'0 0.0
2017-Nov-15 17:58N 68°55' E 015°03'0 0.0
2017-Nov-15 17:28N 68°55' E 015°03'0 0.0
2017-Nov-15 16:58N 68°55' E 015°03'0 0.0
2017-Nov-15 16:28N 68°55' E 015°03'0 0.0
2017-Nov-15 15:58N 68°55' E 015°03'0 0.0
2017-Nov-15 15:28N 68°55' E 015°03'0 0.0
2017-Nov-15 14:58N 68°55' E 015°03'0 0.0
2017-Nov-15 14:28N 68°55' E 015°03'0 0.0
2017-Nov-15 13:58N 68°55' E 015°03'0 0.0
2017-Nov-15 13:28N 68°55' E 015°03'0 0.0
2017-Nov-15 12:58N 68°55' E 015°03'0 0.0
2017-Nov-15 12:28N 68°55' E 015°03'0 0.0
2017-Nov-15 11:58N 68°55' E 015°03'0 0.0
2017-Nov-15 11:28N 68°55' E 015°03'0 0.0
2017-Nov-15 10:58N 68°55' E 015°03'0 0.0
2017-Nov-15 10:28N 68°55' E 015°03'0 0.0
2017-Nov-15 09:58N 68°55' E 015°03'0 0.0
2017-Nov-15 09:28N 68°55' E 015°03'0 0.0
2017-Nov-15 08:58N 68°55' E 015°03'0 0.0
2017-Nov-15 08:28N 68°55' E 015°03'0 0.0
2017-Nov-15 07:58N 68°55' E 015°03'0 0.0
2017-Nov-15 07:28N 68°55' E 015°03'0 0.0
2017-Nov-15 06:58N 68°55' E 015°03'0 0.0
2017-Nov-15 06:28N 68°55' E 015°03'0 0.2
2017-Nov-15 06:00N 68°55' E 015°03'0 0.6
2017-Nov-15 05:30N 68°55' E 015°04'0 0.0
2017-Nov-15 05:00N 68°55' E 015°04'0 0.0
2017-Nov-15 04:30N 68°55' E 015°04'0 0.0
2017-Nov-15 04:00N 68°55' E 015°04'0 0.0
2017-Nov-15 03:30N 68°55' E 015°04'0 0.0
2017-Nov-15 03:00N 68°55' E 015°04'0 0.0
2017-Nov-15 02:30N 68°55' E 015°04'0 0.2
2017-Nov-15 02:00N 68°55' E 015°04'3 6.7
2017-Nov-15 01:30N 68°52' E 014°58'5 9.2
2017-Nov-15 01:00N 68°52' E 014°46'5 9.7
2017-Nov-15 00:30N 68°52' E 014°32'5 9.6
2017-Nov-15 00:00N 68°53' E 014°19'5 9.7
2017-Nov-14 23:30N 68°53' E 014°05'5 9.5
2017-Nov-14 23:00N 68°53' E 013°52'5 9.4
2017-Nov-14 22:29N 68°53' E 013°39'5 9.5
2017-Nov-14 22:00N 68°52' E 013°27'  
Track history (hours):
 
Tides and Currents Weather Stations Pressure Air Temp Water Temp Dewpoint Dewpoint Depression Visibility Wind Speed Wind Dir Waves Ship Positions

Hav Skandic

Last reported at 2017-Nov-20 00:30 UTC. Time now 2017-Nov-21 10:14 UTC.
Position N 68°11' E 014°49'.

Length 75 m; draft 5.3 m.

Type: Cargo ship. MMSI: 231837000.

Date/timePositionNaut miles runAvg speedWind from/ knotsBaromVisibWave heightAir tempDewpointWater temp
2017-Nov-20 00:30N 68°11' E 014°49'510.8
2017-Nov-20 00:00N 68°15' E 014°57'510.2
2017-Nov-19 23:30N 68°20' E 015°01'5 9.6
2017-Nov-19 23:00N 68°24' E 015°07'5 9.0
2017-Nov-19 22:30N 68°29' E 015°12'4 7.0
2017-Nov-19 22:00N 68°32' E 015°07'3 6.8
2017-Nov-19 21:30N 68°34' E 015°01'2 3.1
2017-Nov-19 20:58N 68°35' E 014°57'0 0.0
2017-Nov-19 20:28N 68°35' E 014°57'0 0.0
2017-Nov-19 19:58N 68°35' E 014°57'0 0.0
2017-Nov-19 19:28N 68°35' E 014°57'0 0.0
2017-Nov-19 18:58N 68°35' E 014°57'0 0.0
2017-Nov-19 18:28N 68°35' E 014°57'0 0.0
2017-Nov-19 17:58N 68°35' E 014°57'0 0.0
2017-Nov-19 17:28N 68°35' E 014°57'0 0.0
2017-Nov-19 16:58N 68°35' E 014°57'0 0.0
2017-Nov-19 16:28N 68°35' E 014°57'0 0.0
2017-Nov-19 15:58N 68°35' E 014°57'0 0.0
2017-Nov-19 15:28N 68°35' E 014°57'0 0.0
2017-Nov-19 14:58N 68°35' E 014°57'0 0.0
2017-Nov-19 14:28N 68°35' E 014°57'0 0.0
2017-Nov-19 13:58N 68°35' E 014°57'0 0.0
2017-Nov-19 13:28N 68°35' E 014°57'0 0.0
2017-Nov-19 12:58N 68°35' E 014°57'0 0.0
2017-Nov-19 12:28N 68°35' E 014°57'0 0.0
2017-Nov-19 11:58N 68°35' E 014°57'0 0.0
2017-Nov-19 11:28N 68°35' E 014°57'0 0.0
2017-Nov-19 10:58N 68°35' E 014°57'1 1.6
2017-Nov-19 10:28N 68°34' E 014°55'0 0.0
2017-Nov-19 09:58N 68°34' E 014°55'0 0.0
2017-Nov-19 09:28N 68°34' E 014°55'0 0.0
2017-Nov-19 08:58N 68°34' E 014°55'0 0.0
2017-Nov-19 08:28N 68°34' E 014°55'0 0.0
2017-Nov-19 07:58N 68°34' E 014°55'0 0.0
2017-Nov-19 07:28N 68°34' E 014°55'0 0.0
2017-Nov-19 06:58N 68°34' E 014°55'0 0.0
2017-Nov-19 06:28N 68°34' E 014°55'0 0.0
2017-Nov-19 05:58N 68°34' E 014°55'0 0.0
2017-Nov-19 05:28N 68°34' E 014°55'0 0.0
2017-Nov-19 04:58N 68°34' E 014°55'0 0.0
2017-Nov-19 04:28N 68°34' E 014°55'0 0.0
2017-Nov-19 03:58N 68°34' E 014°55'0 0.0
2017-Nov-19 03:28N 68°34' E 014°55'0 0.0
2017-Nov-19 02:58N 68°34' E 014°55'0 0.0
2017-Nov-19 02:28N 68°34' E 014°55'0 0.0
2017-Nov-19 01:58N 68°34' E 014°55'0 0.0
2017-Nov-19 01:28N 68°34' E 014°55'0 0.0
2017-Nov-19 00:58N 68°34' E 014°55'0 0.0
2017-Nov-19 00:28N 68°34' E 014°55'0 0.0
2017-Nov-18 23:58N 68°34' E 014°55'0 0.0
2017-Nov-18 23:28N 68°34' E 014°55'0 0.0
2017-Nov-18 22:58N 68°34' E 014°55'0 0.0
2017-Nov-18 22:28N 68°34' E 014°55'0 0.0
2017-Nov-18 21:58N 68°34' E 014°55'0 0.0
2017-Nov-18 21:28N 68°34' E 014°55'0 0.0
2017-Nov-18 20:58N 68°34' E 014°55'0 0.0
2017-Nov-18 20:28N 68°34' E 014°55'0 0.0
2017-Nov-18 19:58N 68°34' E 014°55'0 0.0
2017-Nov-18 19:28N 68°34' E 014°55'0 0.0
2017-Nov-18 18:58N 68°34' E 014°55'0 0.0
2017-Nov-18 18:28N 68°34' E 014°55'0 0.0
2017-Nov-18 17:58N 68°34' E 014°55'0 0.0
2017-Nov-18 17:28N 68°34' E 014°55'0 0.0
2017-Nov-18 16:58N 68°34' E 014°55'0 0.0
2017-Nov-18 16:28N 68°34' E 014°55'0 0.0
2017-Nov-18 15:58N 68°34' E 014°55'0 0.0
2017-Nov-18 15:28N 68°34' E 014°55'0 0.0
2017-Nov-18 14:58N 68°34' E 014°55'0 0.0
2017-Nov-18 14:28N 68°34' E 014°55'0 0.0
2017-Nov-18 13:58N 68°34' E 014°55'0 0.0
2017-Nov-18 13:28N 68°34' E 014°55'0 0.0
2017-Nov-18 12:58N 68°34' E 014°55'0 0.0
2017-Nov-18 12:28N 68°34' E 014°55'0 0.0
2017-Nov-18 11:58N 68°34' E 014°55'0 0.0
2017-Nov-18 11:28N 68°34' E 014°55'0 0.0
2017-Nov-18 10:58N 68°34' E 014°55'0 0.0
2017-Nov-18 10:28N 68°34' E 014°55'0 0.0
2017-Nov-18 09:58N 68°34' E 014°55'0 0.0
2017-Nov-18 09:28N 68°34' E 014°55'0 0.0
2017-Nov-18 08:58N 68°34' E 014°55'0 0.0
2017-Nov-18 08:28N 68°34' E 014°55'0 0.0
2017-Nov-18 07:58N 68°34' E 014°55'0 0.0
2017-Nov-18 07:28N 68°34' E 014°55'0 0.0
2017-Nov-18 06:58N 68°34' E 014°55'0 0.0
2017-Nov-18 06:28N 68°34' E 014°55'0 0.0
2017-Nov-18 05:58N 68°34' E 014°55'0 0.0
2017-Nov-18 05:28N 68°34' E 014°55'0 0.0
2017-Nov-18 04:58N 68°34' E 014°55'0 0.0
2017-Nov-18 04:28N 68°34' E 014°55'0 0.0
2017-Nov-18 03:58N 68°34' E 014°55'0 0.0
2017-Nov-18 03:28N 68°34' E 014°55'0 0.0
2017-Nov-18 02:58N 68°34' E 014°55'0 0.0
2017-Nov-18 02:28N 68°34' E 014°55'0 0.0
2017-Nov-18 01:58N 68°34' E 014°55'0 0.0
2017-Nov-18 01:28N 68°34' E 014°55'0 0.0
2017-Nov-18 00:58N 68°34' E 014°55'0 0.0
2017-Nov-18 00:28N 68°34' E 014°55'0 0.0
2017-Nov-17 23:58N 68°34' E 014°55'0 0.0
2017-Nov-17 23:28N 68°34' E 014°55'0 0.0
2017-Nov-17 22:58N 68°34' E 014°55'0 0.0
2017-Nov-17 22:28N 68°34' E 014°55'0 0.0
2017-Nov-17 21:58N 68°34' E 014°55'0 0.0
2017-Nov-17 21:28N 68°34' E 014°55'0 0.0
2017-Nov-17 20:58N 68°34' E 014°55'0 0.0
2017-Nov-17 20:28N 68°34' E 014°55'0 0.0
2017-Nov-17 19:58N 68°34' E 014°55'0 0.0
2017-Nov-17 19:28N 68°34' E 014°55'0 0.0
2017-Nov-17 18:58N 68°34' E 014°55'0 0.0
2017-Nov-17 18:28N 68°34' E 014°55'0 0.0
2017-Nov-17 17:58N 68°34' E 014°55'0 0.0
2017-Nov-17 17:28N 68°34' E 014°55'0 0.0
2017-Nov-17 16:58N 68°34' E 014°55'0 0.0
2017-Nov-17 16:28N 68°34' E 014°55'0 0.0
2017-Nov-17 15:58N 68°34' E 014°55'0 0.0
2017-Nov-17 15:28N 68°34' E 014°55'0 0.0
2017-Nov-17 14:58N 68°34' E 014°55'0 0.0
2017-Nov-17 14:28N 68°34' E 014°55'0 0.0
2017-Nov-17 13:58N 68°34' E 014°55'0 0.0
2017-Nov-17 13:28N 68°34' E 014°55'0 0.0
2017-Nov-17 12:58N 68°34' E 014°55'0 0.0
2017-Nov-17 12:28N 68°34' E 014°55'0 0.0
2017-Nov-17 11:58N 68°34' E 014°55'0 0.0
2017-Nov-17 11:28N 68°34' E 014°55'0 0.0
2017-Nov-17 10:58N 68°34' E 014°55'0 0.0
2017-Nov-17 10:30N 68°34' E 014°55'0 0.0
2017-Nov-17 10:00N 68°34' E 014°55'0 0.2
2017-Nov-17 09:30N 68°34' E 014°55'3 6.5
2017-Nov-17 09:00N 68°35' E 014°46'4 7.8
2017-Nov-17 08:30N 68°36' E 014°36'5 9.4
2017-Nov-17 08:00N 68°35' E 014°23'4 8.4
2017-Nov-17 07:30N 68°36' E 014°12'4 7.5
2017-Nov-17 07:00N 68°39' E 014°11'4 8.4
2017-Nov-17 06:30N 68°43' E 014°15'4 8.4
2017-Nov-17 05:59N 68°47' E 014°21'4 8.8
2017-Nov-17 05:30N 68°50' E 014°30'5 9.2
2017-Nov-17 05:00N 68°52' E 014°41'5 9.6
2017-Nov-17 04:30N 68°52' E 014°55'4 8.3
2017-Nov-17 04:00N 68°55' E 015°03'0 0.9
2017-Nov-17 03:29N 68°55' E 015°04'0 0.0
2017-Nov-17 03:00N 68°55' E 015°04'0 0.0
2017-Nov-17 02:30N 68°55' E 015°04'0 0.0
2017-Nov-17 02:00N 68°55' E 015°04'0 0.0
2017-Nov-17 01:30N 68°55' E 015°04'0 0.0
2017-Nov-17 01:00N 68°55' E 015°04'0 0.0
2017-Nov-17 00:30N 68°55' E 015°04'0 0.0
2017-Nov-17 00:00N 68°55' E 015°04'0 0.0
2017-Nov-16 23:30N 68°55' E 015°04'0 0.0
2017-Nov-16 23:00N 68°55' E 015°04'0 0.0
2017-Nov-16 22:30N 68°55' E 015°04'0 0.0
2017-Nov-16 22:00N 68°55' E 015°04'0 0.0
2017-Nov-16 21:30N 68°55' E 015°04'0 0.0
2017-Nov-16 21:00N 68°55' E 015°04'0 0.0
2017-Nov-16 20:30N 68°55' E 015°04'0 0.0
2017-Nov-16 20:00N 68°55' E 015°04'0 0.0
2017-Nov-16 19:27N 68°55' E 015°04'0 0.0
2017-Nov-16 19:00N 68°55' E 015°04'0 0.0
2017-Nov-16 18:30N 68°55' E 015°04'0 0.0
2017-Nov-16 18:00N 68°55' E 015°04'0 0.0
2017-Nov-16 17:30N 68°55' E 015°04'0 0.0
2017-Nov-16 17:00N 68°55' E 015°04'0 0.0
2017-Nov-16 16:30N 68°55' E 015°04'0 0.0
2017-Nov-16 16:00N 68°55' E 015°04'0 0.0
2017-Nov-16 15:30N 68°55' E 015°04'0 0.0
2017-Nov-16 15:00N 68°55' E 015°04'0 0.0
2017-Nov-16 14:30N 68°55' E 015°04'0 0.0
2017-Nov-16 14:00N 68°55' E 015°04'0 0.0
2017-Nov-16 13:30N 68°55' E 015°04'0 0.0
2017-Nov-16 13:00N 68°55' E 015°04'0 0.0
2017-Nov-16 12:30N 68°55' E 015°04'0 0.0
2017-Nov-16 12:00N 68°55' E 015°04'0 0.0
2017-Nov-16 11:30N 68°55' E 015°04'0 0.0
2017-Nov-16 11:00N 68°55' E 015°04'0 0.0
2017-Nov-16 10:30N 68°55' E 015°04'0 0.0
2017-Nov-16 10:00N 68°55' E 015°04'0 0.0
2017-Nov-16 09:30N 68°55' E 015°04'0 0.0
2017-Nov-16 09:00N 68°55' E 015°04'0 0.0
2017-Nov-16 08:30N 68°55' E 015°04'0 0.0
2017-Nov-16 08:00N 68°55' E 015°04'0 0.0
2017-Nov-16 07:30N 68°55' E 015°04'0 0.5
2017-Nov-16 06:58N 68°55' E 015°03'0 0.0
2017-Nov-16 06:28N 68°55' E 015°03'0 0.0
2017-Nov-16 05:58N 68°55' E 015°03'0 0.0
2017-Nov-16 05:28N 68°55' E 015°03'0 0.0
2017-Nov-16 04:58N 68°55' E 015°03'0 0.0
2017-Nov-16 04:28N 68°55' E 015°03'0 0.0
2017-Nov-16 03:58N 68°55' E 015°03'0 0.0
2017-Nov-16 03:28N 68°55' E 015°03'0 0.0
2017-Nov-16 02:58N 68°55' E 015°03'0 0.0
2017-Nov-16 02:28N 68°55' E 015°03'0 0.0
2017-Nov-16 01:58N 68°55' E 015°03'0 0.0
2017-Nov-16 01:28N 68°55' E 015°03'0 0.0
2017-Nov-16 00:58N 68°55' E 015°03'0 0.0
2017-Nov-16 00:28N 68°55' E 015°03'0 0.0
2017-Nov-15 23:58N 68°55' E 015°03'0 0.0
2017-Nov-15 23:28N 68°55' E 015°03'0 0.0
2017-Nov-15 22:58N 68°55' E 015°03'0 0.0
2017-Nov-15 22:28N 68°55' E 015°03'0 0.0
2017-Nov-15 21:58N 68°55' E 015°03'0 0.0
2017-Nov-15 21:28N 68°55' E 015°03'0 0.0
2017-Nov-15 20:58N 68°55' E 015°03'0 0.0
2017-Nov-15 20:28N 68°55' E 015°03'0 0.0
2017-Nov-15 19:58N 68°55' E 015°03'0 0.0
2017-Nov-15 19:28N 68°55' E 015°03'0 0.0
2017-Nov-15 18:58N 68°55' E 015°03'0 0.0
2017-Nov-15 18:28N 68°55' E 015°03'0 0.0
2017-Nov-15 17:58N 68°55' E 015°03'0 0.0
2017-Nov-15 17:28N 68°55' E 015°03'0 0.0
2017-Nov-15 16:58N 68°55' E 015°03'0 0.0
2017-Nov-15 16:28N 68°55' E 015°03'0 0.0
2017-Nov-15 15:58N 68°55' E 015°03'0 0.0
2017-Nov-15 15:28N 68°55' E 015°03'0 0.0
2017-Nov-15 14:58N 68°55' E 015°03'0 0.0
2017-Nov-15 14:28N 68°55' E 015°03'0 0.0
2017-Nov-15 13:58N 68°55' E 015°03'0 0.0
2017-Nov-15 13:28N 68°55' E 015°03'0 0.0
2017-Nov-15 12:58N 68°55' E 015°03'0 0.0
2017-Nov-15 12:28N 68°55' E 015°03'0 0.0
2017-Nov-15 11:58N 68°55' E 015°03'0 0.0
2017-Nov-15 11:28N 68°55' E 015°03'0 0.0
2017-Nov-15 10:58N 68°55' E 015°03'0 0.0
2017-Nov-15 10:28N 68°55' E 015°03'0 0.0
2017-Nov-15 09:58N 68°55' E 015°03'0 0.0
2017-Nov-15 09:28N 68°55' E 015°03'0 0.0
2017-Nov-15 08:58N 68°55' E 015°03'0 0.0
2017-Nov-15 08:28N 68°55' E 015°03'0 0.0
2017-Nov-15 07:58N 68°55' E 015°03'0 0.0
2017-Nov-15 07:28N 68°55' E 015°03'0 0.0
2017-Nov-15 06:58N 68°55' E 015°03'0 0.0
2017-Nov-15 06:28N 68°55' E 015°03'0 0.2
2017-Nov-15 06:00N 68°55' E 015°03'0 0.6
2017-Nov-15 05:30N 68°55' E 015°04'0 0.0
2017-Nov-15 05:00N 68°55' E 015°04'0 0.0
2017-Nov-15 04:30N 68°55' E 015°04'0 0.0
2017-Nov-15 04:00N 68°55' E 015°04'0 0.0
2017-Nov-15 03:30N 68°55' E 015°04'0 0.0
2017-Nov-15 03:00N 68°55' E 015°04'0 0.0
2017-Nov-15 02:30N 68°55' E 015°04'0 0.2
2017-Nov-15 02:00N 68°55' E 015°04'3 6.7
2017-Nov-15 01:30N 68°52' E 014°58'5 9.2
2017-Nov-15 01:00N 68°52' E 014°46'5 9.7
2017-Nov-15 00:30N 68°52' E 014°32'5 9.6
2017-Nov-15 00:00N 68°53' E 014°19'5 9.7
2017-Nov-14 23:30N 68°53' E 014°05'5 9.5
2017-Nov-14 23:00N 68°53' E 013°52'5 9.4
2017-Nov-14 22:29N 68°53' E 013°39'5 9.5
2017-Nov-14 22:00N 68°52' E 013°27'  

Dump ship's entire track history